AXM6219 WMKN-WMKK
Flight info
| Callsign | AXM6219 |
|---|---|
| Flight time | 0h 37m |
| Altitude | 26000 |
| Route | LASOB1B LASOB Y346 PULIP PULIP1G |
| Aircraft | A20N/M-SDE2E3FGHIRWXY/LB1 |
Departure
| Time | 2026-05-01 13:09 |
|---|---|
| Airport | Sultan Mahmud Airport (WMKN) |
Arrival
| Time | 2026-05-01 13:46 |
|---|---|
| Airport | Kuala Lumpur International Airport (WMKK) |
| Time | Latitude | Longitude | Altitude | Speed | Heading |
|---|---|---|---|---|---|
| 2026-05-01 12:35 | 5.37903 | 103.10398 | 27 ft | 0 kts | 134° |
| 2026-05-01 12:57 | 5.37910 | 103.10390 | 25 ft | 3 kts | 135° |
| 2026-05-01 12:57 | 5.37924 | 103.10376 | 31 ft | 3 kts | 138° |
| 2026-05-01 12:58 | 5.37940 | 103.10363 | 30 ft | 3 kts | 140° |
| 2026-05-01 12:58 | 5.37955 | 103.10350 | 29 ft | 3 kts | 141° |
| 2026-05-01 12:58 | 5.37971 | 103.10337 | 26 ft | 3 kts | 136° |
| 2026-05-01 12:59 | 5.37985 | 103.10314 | 28 ft | 1 kts | 45° |
| 2026-05-01 12:59 | 5.37984 | 103.10313 | 28 ft | 0 kts | 45° |
| 2026-05-01 13:01 | 5.37990 | 103.10319 | 28 ft | 5 kts | 45° |
| 2026-05-01 13:01 | 5.38086 | 103.10403 | 29 ft | 8 kts | 17° |
| 2026-05-01 13:02 | 5.38132 | 103.10392 | 26 ft | 6 kts | 323° |
| 2026-05-01 13:07 | 5.39140 | 103.11190 | 28 ft | 9 kts | 224° |
| 2026-05-01 13:07 | 5.39123 | 103.11174 | 28 ft | 0 kts | 224° |
| 2026-05-01 13:08 | 5.39122 | 103.11173 | 28 ft | 2 kts | 224° |
| 2026-05-01 13:08 | 5.38848 | 103.10907 | 29 ft | 112 kts | 224° |
| 2026-05-01 13:08 | 5.38070 | 103.10149 | 266 ft | 181 kts | 224° |
| 2026-05-01 13:09 | 5.37447 | 103.09551 | 913 ft | 193 kts | 223° |
| 2026-05-01 13:09 | 5.36473 | 103.08585 | 2148 ft | 198 kts | 224° |
| 2026-05-01 13:09 | 5.35658 | 103.07380 | 3071 ft | 223 kts | 246° |
| 2026-05-01 13:09 | 5.35052 | 103.05858 | 4056 ft | 246 kts | 248° |
| 2026-05-01 13:10 | 5.34404 | 103.04185 | 5003 ft | 269 kts | 248° |
| 2026-05-01 13:10 | 5.33698 | 103.02386 | 6099 ft | 282 kts | 248° |
| 2026-05-01 13:10 | 5.32957 | 103.00528 | 7293 ft | 290 kts | 247° |
| 2026-05-01 13:10 | 5.32193 | 102.98629 | 8442 ft | 297 kts | 247° |
| 2026-05-01 13:11 | 5.31408 | 102.96690 | 9648 ft | 302 kts | 247° |
| 2026-05-01 13:11 | 5.30599 | 102.94695 | 10573 ft | 319 kts | 247° |
| 2026-05-01 13:11 | 5.29732 | 102.92560 | 11133 ft | 344 kts | 247° |
| 2026-05-01 13:11 | 5.28801 | 102.90261 | 11762 ft | 363 kts | 247° |
| 2026-05-01 13:12 | 5.27849 | 102.87911 | 12745 ft | 369 kts | 247° |
| 2026-05-01 13:12 | 5.26877 | 102.85509 | 13752 ft | 375 kts | 247° |
| 2026-05-01 13:12 | 5.25887 | 102.83061 | 14646 ft | 381 kts | 247° |
| 2026-05-01 13:12 | 5.24884 | 102.80584 | 15497 ft | 386 kts | 247° |
| 2026-05-01 13:13 | 5.23865 | 102.78068 | 16356 ft | 392 kts | 247° |
| 2026-05-01 13:13 | 5.22831 | 102.75515 | 17199 ft | 397 kts | 247° |
| 2026-05-01 13:13 | 5.21772 | 102.72934 | 18035 ft | 402 kts | 245° |
| 2026-05-01 13:13 | 5.20282 | 102.70544 | 18741 ft | 406 kts | 228° |
| 2026-05-01 13:14 | 5.18196 | 102.68648 | 19482 ft | 406 kts | 212° |
| 2026-05-01 13:14 | 5.15725 | 102.67266 | 20187 ft | 409 kts | 205° |
| 2026-05-01 13:14 | 5.13184 | 102.65945 | 20903 ft | 414 kts | 205° |
| 2026-05-01 13:14 | 5.10611 | 102.64609 | 21579 ft | 418 kts | 205° |
| 2026-05-01 13:15 | 5.08050 | 102.63275 | 22275 ft | 422 kts | 205° |
| 2026-05-01 13:15 | 5.05432 | 102.61907 | 22957 ft | 426 kts | 206° |
| 2026-05-01 13:15 | 5.02791 | 102.60525 | 23600 ft | 431 kts | 206° |
| 2026-05-01 13:15 | 5.00122 | 102.59126 | 24173 ft | 435 kts | 206° |
| 2026-05-01 13:16 | 4.97428 | 102.57715 | 24752 ft | 438 kts | 206° |
| 2026-05-01 13:16 | 4.94713 | 102.56292 | 25294 ft | 442 kts | 206° |
| 2026-05-01 13:16 | 4.91976 | 102.54858 | 25685 ft | 445 kts | 206° |
| 2026-05-01 13:17 | 4.83716 | 102.50529 | 25890 ft | 446 kts | 206° |
| 2026-05-01 13:17 | 4.80965 | 102.49088 | 25885 ft | 446 kts | 206° |
| 2026-05-01 13:18 | 4.75455 | 102.46202 | 25885 ft | 447 kts | 206° |
| 2026-05-01 13:18 | 4.72699 | 102.44759 | 25891 ft | 446 kts | 206° |
| 2026-05-01 13:18 | 4.69950 | 102.43320 | 25883 ft | 446 kts | 206° |
| 2026-05-01 13:18 | 4.67200 | 102.41881 | 25882 ft | 446 kts | 206° |
| 2026-05-01 13:19 | 4.64435 | 102.40433 | 25885 ft | 447 kts | 206° |
| 2026-05-01 13:19 | 4.61680 | 102.38991 | 25891 ft | 447 kts | 206° |
| 2026-05-01 13:19 | 4.56194 | 102.36120 | 25880 ft | 447 kts | 206° |
| 2026-05-01 13:20 | 4.53414 | 102.34665 | 25881 ft | 447 kts | 206° |
| 2026-05-01 13:20 | 4.50656 | 102.33222 | 25880 ft | 447 kts | 206° |
| 2026-05-01 13:20 | 4.47930 | 102.31795 | 25882 ft | 447 kts | 206° |
| 2026-05-01 13:21 | 4.42417 | 102.28910 | 25879 ft | 447 kts | 206° |
| 2026-05-01 13:21 | 4.39663 | 102.27469 | 25872 ft | 447 kts | 206° |
| 2026-05-01 13:21 | 4.36905 | 102.26026 | 25872 ft | 447 kts | 206° |
| 2026-05-01 13:21 | 4.34144 | 102.24582 | 25873 ft | 447 kts | 206° |
| 2026-05-01 13:22 | 4.31389 | 102.23142 | 25865 ft | 447 kts | 206° |
| 2026-05-01 13:22 | 4.28631 | 102.21699 | 25862 ft | 447 kts | 206° |
| 2026-05-01 13:22 | 4.25862 | 102.20251 | 25864 ft | 447 kts | 206° |
| 2026-05-01 13:22 | 4.23100 | 102.18807 | 25866 ft | 447 kts | 206° |
| 2026-05-01 13:23 | 4.20344 | 102.17366 | 25866 ft | 447 kts | 206° |
| 2026-05-01 13:23 | 4.17608 | 102.15963 | 25867 ft | 447 kts | 202° |
| 2026-05-01 13:23 | 4.14663 | 102.14998 | 25889 ft | 444 kts | 191° |
| 2026-05-01 13:23 | 4.11641 | 102.14335 | 25883 ft | 444 kts | 190° |
| 2026-05-01 13:24 | 4.08621 | 102.13680 | 25877 ft | 444 kts | 190° |
| 2026-05-01 13:24 | 4.05600 | 102.13024 | 25877 ft | 444 kts | 190° |
| 2026-05-01 13:24 | 4.02573 | 102.12364 | 25885 ft | 444 kts | 190° |
| 2026-05-01 13:25 | 3.96536 | 102.11045 | 25881 ft | 444 kts | 190° |
| 2026-05-01 13:25 | 3.93520 | 102.10385 | 25885 ft | 444 kts | 190° |
| 2026-05-01 13:25 | 3.90497 | 102.09723 | 25885 ft | 444 kts | 190° |
| 2026-05-01 13:25 | 3.87481 | 102.09064 | 25891 ft | 444 kts | 190° |
| 2026-05-01 13:26 | 3.84462 | 102.08403 | 25889 ft | 444 kts | 190° |
| 2026-05-01 13:26 | 3.81447 | 102.07744 | 25890 ft | 443 kts | 190° |
| 2026-05-01 13:26 | 3.78430 | 102.07084 | 25893 ft | 444 kts | 190° |
| 2026-05-01 13:26 | 3.75416 | 102.06425 | 25893 ft | 444 kts | 190° |
| 2026-05-01 13:27 | 3.72435 | 102.05774 | 25901 ft | 444 kts | 190° |
| 2026-05-01 13:27 | 3.69420 | 102.05115 | 25896 ft | 444 kts | 190° |
| 2026-05-01 13:27 | 3.63387 | 102.03795 | 25899 ft | 444 kts | 190° |
| 2026-05-01 13:28 | 3.57347 | 102.02475 | 25908 ft | 444 kts | 190° |
| 2026-05-01 13:28 | 3.54340 | 102.01818 | 25901 ft | 444 kts | 190° |
| 2026-05-01 13:29 | 3.48298 | 102.00497 | 25898 ft | 444 kts | 190° |
| 2026-05-01 13:29 | 3.42265 | 101.99178 | 25019 ft | 445 kts | 190° |
| 2026-05-01 13:30 | 3.30296 | 101.96560 | 21850 ft | 421 kts | 190° |
| 2026-05-01 13:31 | 3.24775 | 101.95352 | 20456 ft | 401 kts | 190° |
| 2026-05-01 13:31 | 3.16812 | 101.93616 | 18506 ft | 390 kts | 190° |
| 2026-05-01 13:32 | 3.11544 | 101.92466 | 17171 ft | 382 kts | 190° |
| 2026-05-01 13:33 | 3.03903 | 101.90857 | 15376 ft | 363 kts | 183° |
| 2026-05-01 13:33 | 2.98798 | 101.91289 | 14702 ft | 381 kts | 171° |
| 2026-05-01 13:34 | 2.93880 | 101.91896 | 13472 ft | 382 kts | 171° |
| 2026-05-01 13:34 | 2.88779 | 101.92523 | 12242 ft | 361 kts | 171° |
| 2026-05-01 13:35 | 2.83863 | 101.93128 | 11016 ft | 350 kts | 171° |
| 2026-05-01 13:35 | 2.81461 | 101.93425 | 10399 ft | 347 kts | 171° |
| 2026-05-01 13:35 | 2.76896 | 101.93985 | 10000 ft | 315 kts | 171° |
| 2026-05-01 13:36 | 2.74771 | 101.94245 | 9811 ft | 301 kts | 171° |
| 2026-05-01 13:36 | 2.72703 | 101.94500 | 9432 ft | 295 kts | 171° |
| 2026-05-01 13:36 | 2.68713 | 101.94993 | 8730 ft | 285 kts | 171° |
| 2026-05-01 13:37 | 2.66759 | 101.95234 | 8325 ft | 282 kts | 171° |
| 2026-05-01 13:37 | 2.64819 | 101.95474 | 7919 ft | 279 kts | 171° |
| 2026-05-01 13:37 | 2.62900 | 101.95710 | 7515 ft | 277 kts | 171° |
| 2026-05-01 13:37 | 2.60993 | 101.95945 | 7116 ft | 275 kts | 172° |
| 2026-05-01 13:38 | 2.57234 | 101.96409 | 6341 ft | 272 kts | 172° |
| 2026-05-01 13:38 | 2.55342 | 101.96639 | 5891 ft | 275 kts | 173° |
| 2026-05-01 13:38 | 2.53446 | 101.96457 | 5558 ft | 278 kts | 198° |
| 2026-05-01 13:39 | 2.51815 | 101.95450 | 5208 ft | 278 kts | 225° |
| 2026-05-01 13:39 | 2.50629 | 101.93917 | 5007 ft | 279 kts | 235° |
| 2026-05-01 13:39 | 2.49567 | 101.92278 | 4374 ft | 281 kts | 237° |
| 2026-05-01 13:39 | 2.48528 | 101.90623 | 3734 ft | 280 kts | 237° |
| 2026-05-01 13:40 | 2.47551 | 101.89054 | 3300 ft | 279 kts | 243° |
| 2026-05-01 13:40 | 2.47075 | 101.87195 | 2826 ft | 277 kts | 270° |
| 2026-05-01 13:40 | 2.47509 | 101.85371 | 2612 ft | 267 kts | 299° |
| 2026-05-01 13:40 | 2.48735 | 101.83979 | 2538 ft | 268 kts | 324° |
| 2026-05-01 13:41 | 2.50313 | 101.83012 | 2522 ft | 262 kts | 333° |
| 2026-05-01 13:41 | 2.51899 | 101.82235 | 2518 ft | 245 kts | 336° |
| 2026-05-01 13:41 | 2.53371 | 101.81483 | 2520 ft | 230 kts | 332° |
| 2026-05-01 13:41 | 2.54696 | 101.80677 | 2515 ft | 217 kts | 329° |
| 2026-05-01 13:42 | 2.55916 | 101.79861 | 2516 ft | 205 kts | 328° |
| 2026-05-01 13:42 | 2.57068 | 101.79083 | 2512 ft | 194 kts | 328° |
| 2026-05-01 13:42 | 2.58149 | 101.78352 | 2544 ft | 192 kts | 328° |
| 2026-05-01 13:42 | 2.59270 | 101.77594 | 2527 ft | 190 kts | 328° |
| 2026-05-01 13:43 | 2.60360 | 101.76857 | 2422 ft | 194 kts | 328° |
| 2026-05-01 13:43 | 2.61491 | 101.76091 | 2173 ft | 198 kts | 327° |
| 2026-05-01 13:43 | 2.62647 | 101.75310 | 1907 ft | 202 kts | 327° |
| 2026-05-01 13:43 | 2.63809 | 101.74523 | 1687 ft | 197 kts | 327° |
| 2026-05-01 13:44 | 2.64911 | 101.73776 | 1397 ft | 184 kts | 327° |
| 2026-05-01 13:44 | 2.65927 | 101.73088 | 1177 ft | 166 kts | 327° |
| 2026-05-01 13:44 | 2.66809 | 101.72492 | 971 ft | 141 kts | 327° |
| 2026-05-01 13:44 | 2.67574 | 101.71973 | 811 ft | 126 kts | 328° |
| 2026-05-01 13:45 | 2.68294 | 101.71488 | 667 ft | 126 kts | 327° |
| 2026-05-01 13:45 | 2.68998 | 101.71012 | 519 ft | 120 kts | 328° |
| 2026-05-01 13:45 | 2.69699 | 101.70534 | 367 ft | 124 kts | 327° |
| 2026-05-01 13:45 | 2.70405 | 101.70053 | 193 ft | 122 kts | 328° |
| 2026-05-01 13:46 | 2.71108 | 101.69582 | 50 ft | 121 kts | 328° |
| 2026-05-01 13:46 | 2.71661 | 101.69204 | 38 ft | 87 kts | 323° |
| 2026-05-01 13:46 | 2.72015 | 101.68965 | 39 ft | 44 kts | 326° |
| 2026-05-01 13:46 | 2.72220 | 101.68827 | 37 ft | 37 kts | 326° |
| 2026-05-01 13:47 | 2.72394 | 101.68712 | 37 ft | 24 kts | 327° |
| 2026-05-01 13:47 | 2.72557 | 101.68639 | 36 ft | 27 kts | 347° |
| 2026-05-01 13:47 | 2.72688 | 101.68619 | 38 ft | 19 kts | 352° |
| 2026-05-01 13:47 | 2.72756 | 101.68610 | 38 ft | 0 kts | 352° |
| 2026-05-01 13:48 | 2.72798 | 101.68604 | 38 ft | 11 kts | 352° |
| 2026-05-01 13:48 | 2.72891 | 101.68583 | 37 ft | 17 kts | 337° |
| 2026-05-01 13:48 | 2.72982 | 101.68521 | 38 ft | 15 kts | 324° |
| 2026-05-01 13:49 | 2.73085 | 101.68450 | 38 ft | 21 kts | 325° |
| 2026-05-01 13:49 | 2.73219 | 101.68362 | 38 ft | 24 kts | 327° |
| 2026-05-01 13:49 | 2.73342 | 101.68279 | 38 ft | 20 kts | 325° |
| 2026-05-01 13:49 | 2.73449 | 101.68208 | 37 ft | 19 kts | 327° |
| 2026-05-01 13:50 | 2.73562 | 101.68130 | 38 ft | 14 kts | 326° |
| 2026-05-01 13:50 | 2.73639 | 101.68089 | 38 ft | 14 kts | 355° |
| 2026-05-01 13:50 | 2.73693 | 101.68140 | 39 ft | 8 kts | 53° |
| 2026-05-01 13:50 | 2.73726 | 101.68186 | 40 ft | 8 kts | 55° |
| 2026-05-01 13:51 | 2.73750 | 101.68221 | 41 ft | 6 kts | 55° |
| 2026-05-01 13:51 | 2.73773 | 101.68256 | 42 ft | 6 kts | 58° |
| 2026-05-01 13:51 | 2.73796 | 101.68291 | 42 ft | 6 kts | 56° |
| 2026-05-01 13:51 | 2.73821 | 101.68329 | 42 ft | 7 kts | 56° |
| 2026-05-01 13:52 | 2.73847 | 101.68368 | 42 ft | 7 kts | 56° |
| 2026-05-01 13:52 | 2.73875 | 101.68408 | 42 ft | 7 kts | 55° |
| 2026-05-01 13:52 | 2.73904 | 101.68451 | 42 ft | 8 kts | 56° |
| 2026-05-01 13:52 | 2.73935 | 101.68497 | 42 ft | 8 kts | 56° |
| 2026-05-01 13:53 | 2.73973 | 101.68522 | 42 ft | 6 kts | 354° |
| 2026-05-01 13:53 | 2.74038 | 101.68484 | 42 ft | 0 kts | 327° |
| 2026-05-01 13:54 | 2.74039 | 101.68483 | 42 ft | 1 kts | 324° |